sensor_id;sensor_type;location;lat;lon;timestamp;P1;durP1;ratioP1;P2;durP2;ratioP2
65753;SDS011;52488;47.502;18.940;2022-09-24T00:00:29;1.92;;;1.20;;
65753;SDS011;52488;47.502;18.940;2022-09-24T00:01:33;2.40;;;1.30;;
65753;SDS011;52488;47.502;18.940;2022-09-24T00:02:37;1.70;;;1.45;;
65753;SDS011;52488;47.502;18.940;2022-09-24T00:03:41;1.83;;;1.30;;
65753;SDS011;52488;47.502;18.940;2022-09-24T00:04:46;2.42;;;1.40;;
65753;SDS011;52488;47.502;18.940;2022-09-24T00:05:50;3.72;;;1.62;;
65753;SDS011;52488;47.502;18.940;2022-09-24T00:06:54;1.80;;;1.48;;
65753;SDS011;52488;47.502;18.940;2022-09-24T00:07:57;2.85;;;1.45;;
65753;SDS011;52488;47.502;18.940;2022-09-24T00:09:06;2.08;;;1.12;;
65753;SDS011;52488;47.502;18.940;2022-09-24T00:10:09;1.30;;;1.20;;
65753;SDS011;52488;47.502;18.940;2022-09-24T00:11:12;1.73;;;1.55;;
65753;SDS011;52488;47.502;18.940;2022-09-24T00:12:15;1.77;;;1.40;;
65753;SDS011;52488;47.502;18.940;2022-09-24T00:13:19;1.92;;;1.33;;
65753;SDS011;52488;47.502;18.940;2022-09-24T00:14:22;1.85;;;1.35;;
65753;SDS011;52488;47.502;18.940;2022-09-24T00:15:25;1.62;;;1.30;;
65753;SDS011;52488;47.502;18.940;2022-09-24T00:16:29;1.48;;;1.37;;
65753;SDS011;52488;47.502;18.940;2022-09-24T00:17:36;1.58;;;1.48;;
65753;SDS011;52488;47.502;18.940;2022-09-24T00:18:39;1.45;;;1.35;;
65753;SDS011;52488;47.502;18.940;2022-09-24T00:19:42;1.45;;;1.20;;
65753;SDS011;52488;47.502;18.940;2022-09-24T00:20:45;1.65;;;1.40;;
65753;SDS011;52488;47.502;18.940;2022-09-24T00:21:49;2.70;;;1.45;;
65753;SDS011;52488;47.502;18.940;2022-09-24T00:22:51;2.20;;;1.30;;
65753;SDS011;52488;47.502;18.940;2022-09-24T00:23:56;1.52;;;1.10;;
65753;SDS011;52488;47.502;18.940;2022-09-24T00:25:01;3.25;;;1.20;;
65753;SDS011;52488;47.502;18.940;2022-09-24T00:26:22;2.45;;;1.05;;
65753;SDS011;52488;47.502;18.940;2022-09-24T00:27:44;1.95;;;1.37;;
65753;SDS011;52488;47.502;18.940;2022-09-24T00:28:51;2.28;;;1.40;;
65753;SDS011;52488;47.502;18.940;2022-09-24T00:29:54;1.08;;;0.98;;
65753;SDS011;52488;47.502;18.940;2022-09-24T00:30:57;1.75;;;1.50;;
65753;SDS011;52488;47.502;18.940;2022-09-24T00:32:01;3.03;;;1.20;;
65753;SDS011;52488;47.502;18.940;2022-09-24T00:33:05;2.47;;;1.17;;
65753;SDS011;52488;47.502;18.940;2022-09-24T00:34:08;1.55;;;1.45;;
65753;SDS011;52488;47.502;18.940;2022-09-24T00:35:11;1.70;;;1.10;;
65753;SDS011;52488;47.502;18.940;2022-09-24T00:36:14;1.80;;;1.30;;
65753;SDS011;52488;47.502;18.940;2022-09-24T00:37:17;1.60;;;1.23;;
65753;SDS011;52488;47.502;18.940;2022-09-24T00:38:21;1.80;;;1.50;;
65753;SDS011;52488;47.502;18.940;2022-09-24T00:39:24;1.52;;;1.30;;
65753;SDS011;52488;47.502;18.940;2022-09-24T00:40:28;1.55;;;1.35;;
65753;SDS011;52488;47.502;18.940;2022-09-24T00:41:32;1.92;;;1.37;;
65753;SDS011;52488;47.502;18.940;2022-09-24T00:42:37;1.00;;;0.90;;
65753;SDS011;52488;47.502;18.940;2022-09-24T00:43:40;2.75;;;1.30;;
65753;SDS011;52488;47.502;18.940;2022-09-24T00:45:46;1.35;;;1.25;;
65753;SDS011;52488;47.502;18.940;2022-09-24T00:46:49;6.90;;;1.10;;
65753;SDS011;52488;47.502;18.940;2022-09-24T00:47:52;2.45;;;1.33;;
65753;SDS011;52488;47.502;18.940;2022-09-24T00:49:06;1.42;;;1.30;;
65753;SDS011;52488;47.502;18.940;2022-09-24T00:51:26;1.20;;;1.10;;
65753;SDS011;52488;47.502;18.940;2022-09-24T00:52:31;1.37;;;1.20;;
65753;SDS011;52488;47.502;18.940;2022-09-24T00:53:41;1.33;;;1.20;;
65753;SDS011;52488;47.502;18.940;2022-09-24T00:54:46;2.50;;;1.23;;
65753;SDS011;52488;47.502;18.940;2022-09-24T00:55:50;1.20;;;1.10;;
65753;SDS011;52488;47.502;18.940;2022-09-24T00:56:56;3.33;;;1.20;;
65753;SDS011;52488;47.502;18.940;2022-09-24T00:58:02;2.47;;;1.12;;
65753;SDS011;52488;47.502;18.940;2022-09-24T00:59:07;2.78;;;1.30;;
65753;SDS011;52488;47.502;18.940;2022-09-24T01:00:13;4.15;;;1.33;;
65753;SDS011;52488;47.502;18.940;2022-09-24T01:01:17;1.23;;;1.12;;
65753;SDS011;52488;47.502;18.940;2022-09-24T01:02:22;1.40;;;1.20;;
65753;SDS011;52488;47.502;18.940;2022-09-24T01:03:26;1.50;;;1.30;;
65753;SDS011;52488;47.502;18.940;2022-09-24T01:04:30;1.92;;;1.20;;
65753;SDS011;52488;47.502;18.940;2022-09-24T01:05:33;1.55;;;1.10;;
65753;SDS011;52488;47.502;18.940;2022-09-24T01:06:37;1.37;;;1.20;;
65753;SDS011;52488;47.502;18.940;2022-09-24T01:07:41;3.62;;;1.45;;
65753;SDS011;52488;47.502;18.940;2022-09-24T01:08:44;1.33;;;1.23;;
65753;SDS011;52488;47.502;18.940;2022-09-24T01:09:47;2.10;;;1.23;;
65753;SDS011;52488;47.502;18.940;2022-09-24T01:14:43;1.17;;;1.08;;
65753;SDS011;52488;47.502;18.940;2022-09-24T01:15:57;1.45;;;1.27;;
65753;SDS011;52488;47.502;18.940;2022-09-24T01:18:23;1.42;;;0.95;;
65753;SDS011;52488;47.502;18.940;2022-09-24T01:22:59;1.27;;;1.17;;
65753;SDS011;52488;47.502;18.940;2022-09-24T01:30:34;1.60;;;1.05;;
65753;SDS011;52488;47.502;18.940;2022-09-24T01:31:41;1.40;;;1.10;;
65753;SDS011;52488;47.502;18.940;2022-09-24T01:33:57;1.30;;;1.20;;
65753;SDS011;52488;47.502;18.940;2022-09-24T01:35:22;1.10;;;1.10;;
65753;SDS011;52488;47.502;18.940;2022-09-24T01:36:33;1.23;;;1.12;;
65753;SDS011;52488;47.502;18.940;2022-09-24T01:37:39;1.45;;;1.10;;
65753;SDS011;52488;47.502;18.940;2022-09-24T01:38:46;2.20;;;1.65;;
65753;SDS011;52488;47.502;18.940;2022-09-24T01:39:55;3.37;;;1.23;;
65753;SDS011;52488;47.502;18.940;2022-09-24T01:40:59;1.98;;;1.25;;
65753;SDS011;52488;47.502;18.940;2022-09-24T01:42:05;1.45;;;1.27;;
65753;SDS011;52488;47.502;18.940;2022-09-24T01:43:10;1.85;;;1.25;;
65753;SDS011;52488;47.502;18.940;2022-09-24T01:44:15;1.27;;;1.17;;
65753;SDS011;52488;47.502;18.940;2022-09-24T01:45:20;2.17;;;1.42;;
65753;SDS011;52488;47.502;18.940;2022-09-24T01:46:23;1.35;;;1.25;;
65753;SDS011;52488;47.502;18.940;2022-09-24T01:47:33;2.47;;;1.15;;
65753;SDS011;52488;47.502;18.940;2022-09-24T01:48:41;1.37;;;1.27;;
65753;SDS011;52488;47.502;18.940;2022-09-24T01:49:45;1.80;;;1.20;;
65753;SDS011;52488;47.502;18.940;2022-09-24T01:52:16;1.73;;;1.12;;
65753;SDS011;52488;47.502;18.940;2022-09-24T01:53:28;3.15;;;1.23;;
65753;SDS011;52488;47.502;18.940;2022-09-24T01:54:37;3.83;;;1.90;;
65753;SDS011;52488;47.502;18.940;2022-09-24T01:55:45;1.48;;;1.10;;
65753;SDS011;52488;47.502;18.940;2022-09-24T01:57:00;1.45;;;1.12;;
65753;SDS011;52488;47.502;18.940;2022-09-24T01:58:13;3.35;;;1.45;;
65753;SDS011;52488;47.502;18.940;2022-09-24T02:00:30;1.45;;;1.00;;
65753;SDS011;52488;47.502;18.940;2022-09-24T02:01:37;1.20;;;1.12;;
65753;SDS011;52488;47.502;18.940;2022-09-24T02:03:57;1.25;;;1.15;;
65753;SDS011;52488;47.502;18.940;2022-09-24T02:05:15;1.60;;;1.47;;
65753;SDS011;52488;47.502;18.940;2022-09-24T02:06:30;2.17;;;1.40;;
65753;SDS011;52488;47.502;18.940;2022-09-24T02:07:45;0.98;;;0.93;;
65753;SDS011;52488;47.502;18.940;2022-09-24T02:10:41;1.70;;;1.40;;
65753;SDS011;52488;47.502;18.940;2022-09-24T02:12:01;1.98;;;1.42;;
65753;SDS011;52488;47.502;18.940;2022-09-24T02:13:33;1.20;;;1.10;;
65753;SDS011;52488;47.502;18.940;2022-09-24T02:14:53;2.87;;;1.58;;
65753;SDS011;52488;47.502;18.940;2022-09-24T02:16:01;1.83;;;1.40;;
65753;SDS011;52488;47.502;18.940;2022-09-24T02:17:07;2.08;;;1.40;;
65753;SDS011;52488;47.502;18.940;2022-09-24T02:18:12;3.40;;;1.90;;
65753;SDS011;52488;47.502;18.940;2022-09-24T02:19:20;4.53;;;1.80;;
65753;SDS011;52488;47.502;18.940;2022-09-24T02:20:26;2.12;;;1.48;;
65753;SDS011;52488;47.502;18.940;2022-09-24T02:21:32;2.30;;;1.50;;
65753;SDS011;52488;47.502;18.940;2022-09-24T02:22:37;3.70;;;1.92;;
65753;SDS011;52488;47.502;18.940;2022-09-24T02:23:44;2.75;;;1.62;;
65753;SDS011;52488;47.502;18.940;2022-09-24T02:24:53;4.22;;;1.70;;
65753;SDS011;52488;47.502;18.940;2022-09-24T02:25:59;2.80;;;1.62;;
65753;SDS011;52488;47.502;18.940;2022-09-24T02:27:05;2.70;;;1.67;;
65753;SDS011;52488;47.502;18.940;2022-09-24T02:28:08;2.83;;;1.65;;
65753;SDS011;52488;47.502;18.940;2022-09-24T02:29:11;5.18;;;2.00;;
65753;SDS011;52488;47.502;18.940;2022-09-24T02:30:15;4.90;;;1.60;;
65753;SDS011;52488;47.502;18.940;2022-09-24T02:31:24;3.47;;;1.80;;
65753;SDS011;52488;47.502;18.940;2022-09-24T02:32:31;4.47;;;1.58;;
65753;SDS011;52488;47.502;18.940;2022-09-24T02:33:37;3.15;;;1.83;;
65753;SDS011;52488;47.502;18.940;2022-09-24T02:35:04;3.00;;;1.77;;
65753;SDS011;52488;47.502;18.940;2022-09-24T02:36:10;4.35;;;1.70;;
65753;SDS011;52488;47.502;18.940;2022-09-24T02:37:14;3.33;;;1.92;;
65753;SDS011;52488;47.502;18.940;2022-09-24T02:38:18;3.28;;;1.73;;
65753;SDS011;52488;47.502;18.940;2022-09-24T02:39:21;4.43;;;2.05;;
65753;SDS011;52488;47.502;18.940;2022-09-24T02:40:24;1.95;;;1.58;;
65753;SDS011;52488;47.502;18.940;2022-09-24T02:41:27;6.80;;;2.15;;
65753;SDS011;52488;47.502;18.940;2022-09-24T02:42:32;3.45;;;1.80;;
65753;SDS011;52488;47.502;18.940;2022-09-24T02:43:39;3.00;;;1.98;;
65753;SDS011;52488;47.502;18.940;2022-09-24T02:44:42;4.05;;;2.05;;
65753;SDS011;52488;47.502;18.940;2022-09-24T02:45:45;3.08;;;2.20;;
65753;SDS011;52488;47.502;18.940;2022-09-24T02:46:48;3.10;;;1.95;;
65753;SDS011;52488;47.502;18.940;2022-09-24T02:47:52;4.97;;;2.00;;
65753;SDS011;52488;47.502;18.940;2022-09-24T02:48:55;3.58;;;2.12;;
65753;SDS011;52488;47.502;18.940;2022-09-24T02:49:59;2.17;;;1.70;;
65753;SDS011;52488;47.502;18.940;2022-09-24T02:51:02;2.53;;;1.90;;
65753;SDS011;52488;47.502;18.940;2022-09-24T02:52:05;2.55;;;1.75;;
65753;SDS011;52488;47.502;18.940;2022-09-24T02:53:08;3.33;;;1.90;;
65753;SDS011;52488;47.502;18.940;2022-09-24T02:54:11;1.92;;;1.52;;
65753;SDS011;52488;47.502;18.940;2022-09-24T02:55:14;3.90;;;2.20;;
65753;SDS011;52488;47.502;18.940;2022-09-24T02:56:17;3.78;;;1.83;;
65753;SDS011;52488;47.502;18.940;2022-09-24T02:57:20;2.25;;;1.87;;
65753;SDS011;52488;47.502;18.940;2022-09-24T02:58:22;3.28;;;1.90;;
65753;SDS011;52488;47.502;18.940;2022-09-24T02:59:26;4.10;;;2.20;;
65753;SDS011;52488;47.502;18.940;2022-09-24T03:00:29;3.45;;;2.42;;
65753;SDS011;52488;47.502;18.940;2022-09-24T03:01:32;5.05;;;2.22;;
65753;SDS011;52488;47.502;18.940;2022-09-24T03:02:39;4.55;;;2.50;;
65753;SDS011;52488;47.502;18.940;2022-09-24T03:03:42;7.30;;;3.00;;
65753;SDS011;52488;47.502;18.940;2022-09-24T03:04:44;4.60;;;2.55;;
65753;SDS011;52488;47.502;18.940;2022-09-24T03:05:48;6.82;;;3.10;;
65753;SDS011;52488;47.502;18.940;2022-09-24T03:06:54;7.50;;;3.45;;
65753;SDS011;52488;47.502;18.940;2022-09-24T03:07:57;6.37;;;3.97;;
65753;SDS011;52488;47.502;18.940;2022-09-24T03:09:00;8.48;;;4.07;;
65753;SDS011;52488;47.502;18.940;2022-09-24T03:10:05;8.75;;;4.60;;
65753;SDS011;52488;47.502;18.940;2022-09-24T03:11:08;9.27;;;5.12;;
65753;SDS011;52488;47.502;18.940;2022-09-24T03:12:18;11.40;;;5.97;;
65753;SDS011;52488;47.502;18.940;2022-09-24T03:13:21;11.98;;;6.90;;
65753;SDS011;52488;47.502;18.940;2022-09-24T03:14:25;18.00;;;7.18;;
65753;SDS011;52488;47.502;18.940;2022-09-24T03:15:28;15.63;;;7.78;;
65753;SDS011;52488;47.502;18.940;2022-09-24T03:16:31;14.82;;;7.93;;
65753;SDS011;52488;47.502;18.940;2022-09-24T03:17:34;20.65;;;8.90;;
65753;SDS011;52488;47.502;18.940;2022-09-24T03:18:38;17.10;;;8.43;;
65753;SDS011;52488;47.502;18.940;2022-09-24T03:19:41;15.20;;;8.25;;
65753;SDS011;52488;47.502;18.940;2022-09-24T03:20:52;17.58;;;8.70;;
65753;SDS011;52488;47.502;18.940;2022-09-24T03:22:05;16.83;;;7.95;;
65753;SDS011;52488;47.502;18.940;2022-09-24T03:23:08;14.87;;;7.35;;
65753;SDS011;52488;47.502;18.940;2022-09-24T03:24:11;13.95;;;7.30;;
65753;SDS011;52488;47.502;18.940;2022-09-24T03:25:14;10.05;;;5.20;;
65753;SDS011;52488;47.502;18.940;2022-09-24T03:26:17;13.73;;;5.85;;
65753;SDS011;52488;47.502;18.940;2022-09-24T03:27:20;12.10;;;5.45;;
65753;SDS011;52488;47.502;18.940;2022-09-24T03:28:23;11.10;;;4.90;;
65753;SDS011;52488;47.502;18.940;2022-09-24T03:29:27;7.50;;;4.22;;
65753;SDS011;52488;47.502;18.940;2022-09-24T03:30:48;10.38;;;4.50;;
65753;SDS011;52488;47.502;18.940;2022-09-24T03:32:04;7.57;;;3.87;;
65753;SDS011;52488;47.502;18.940;2022-09-24T03:33:07;7.05;;;3.75;;
65753;SDS011;52488;47.502;18.940;2022-09-24T03:34:10;7.05;;;3.40;;
65753;SDS011;52488;47.502;18.940;2022-09-24T03:35:13;4.47;;;3.12;;
65753;SDS011;52488;47.502;18.940;2022-09-24T03:36:21;7.85;;;3.60;;
65753;SDS011;52488;47.502;18.940;2022-09-24T03:37:29;5.10;;;3.05;;
65753;SDS011;52488;47.502;18.940;2022-09-24T03:38:34;6.20;;;2.62;;
65753;SDS011;52488;47.502;18.940;2022-09-24T03:39:38;4.28;;;2.78;;
65753;SDS011;52488;47.502;18.940;2022-09-24T03:40:41;5.07;;;2.50;;
65753;SDS011;52488;47.502;18.940;2022-09-24T03:41:44;3.72;;;2.30;;
65753;SDS011;52488;47.502;18.940;2022-09-24T03:42:47;3.08;;;2.22;;
65753;SDS011;52488;47.502;18.940;2022-09-24T03:43:50;4.20;;;2.60;;
65753;SDS011;52488;47.502;18.940;2022-09-24T03:44:53;4.85;;;2.20;;
65753;SDS011;52488;47.502;18.940;2022-09-24T03:45:56;3.85;;;2.37;;
65753;SDS011;52488;47.502;18.940;2022-09-24T03:46:59;3.37;;;2.15;;
65753;SDS011;52488;47.502;18.940;2022-09-24T03:48:02;4.47;;;2.00;;
65753;SDS011;52488;47.502;18.940;2022-09-24T03:49:07;4.37;;;2.03;;
65753;SDS011;52488;47.502;18.940;2022-09-24T03:50:10;2.97;;;2.03;;
65753;SDS011;52488;47.502;18.940;2022-09-24T03:51:14;2.65;;;2.10;;
65753;SDS011;52488;47.502;18.940;2022-09-24T03:52:20;3.95;;;2.12;;
65753;SDS011;52488;47.502;18.940;2022-09-24T03:53:23;7.97;;;2.10;;
65753;SDS011;52488;47.502;18.940;2022-09-24T03:54:26;4.68;;;2.37;;
65753;SDS011;52488;47.502;18.940;2022-09-24T03:55:29;3.42;;;2.20;;
65753;SDS011;52488;47.502;18.940;2022-09-24T03:56:32;3.40;;;2.20;;
65753;SDS011;52488;47.502;18.940;2022-09-24T03:57:35;2.62;;;2.00;;
65753;SDS011;52488;47.502;18.940;2022-09-24T03:58:38;5.50;;;2.47;;
65753;SDS011;52488;47.502;18.940;2022-09-24T03:59:42;4.95;;;2.70;;
65753;SDS011;52488;47.502;18.940;2022-09-24T04:00:45;5.60;;;2.12;;
65753;SDS011;52488;47.502;18.940;2022-09-24T04:01:48;3.78;;;2.40;;
65753;SDS011;52488;47.502;18.940;2022-09-24T04:02:52;3.67;;;2.33;;
65753;SDS011;52488;47.502;18.940;2022-09-24T04:03:55;3.85;;;2.60;;
65753;SDS011;52488;47.502;18.940;2022-09-24T04:04:57;4.30;;;2.05;;
65753;SDS011;52488;47.502;18.940;2022-09-24T04:06:00;3.33;;;2.12;;
65753;SDS011;52488;47.502;18.940;2022-09-24T04:07:04;4.82;;;1.95;;
65753;SDS011;52488;47.502;18.940;2022-09-24T04:08:07;3.60;;;2.28;;
65753;SDS011;52488;47.502;18.940;2022-09-24T04:09:10;3.42;;;2.15;;
65753;SDS011;52488;47.502;18.940;2022-09-24T04:10:13;5.25;;;2.10;;
65753;SDS011;52488;47.502;18.940;2022-09-24T04:11:16;7.87;;;2.55;;
65753;SDS011;52488;47.502;18.940;2022-09-24T04:12:19;4.55;;;2.20;;
65753;SDS011;52488;47.502;18.940;2022-09-24T04:13:22;3.10;;;2.28;;
65753;SDS011;52488;47.502;18.940;2022-09-24T04:14:25;5.12;;;2.15;;
65753;SDS011;52488;47.502;18.940;2022-09-24T04:15:28;3.45;;;2.37;;
65753;SDS011;52488;47.502;18.940;2022-09-24T04:16:31;3.53;;;1.80;;
65753;SDS011;52488;47.502;18.940;2022-09-24T04:17:34;3.65;;;2.33;;
65753;SDS011;52488;47.502;18.940;2022-09-24T04:18:41;3.65;;;2.03;;
65753;SDS011;52488;47.502;18.940;2022-09-24T04:19:44;2.05;;;1.60;;
65753;SDS011;52488;47.502;18.940;2022-09-24T04:20:47;6.85;;;2.00;;
65753;SDS011;52488;47.502;18.940;2022-09-24T04:21:50;3.62;;;2.22;;
65753;SDS011;52488;47.502;18.940;2022-09-24T04:22:53;3.10;;;2.05;;
65753;SDS011;52488;47.502;18.940;2022-09-24T04:23:57;4.45;;;2.42;;
65753;SDS011;52488;47.502;18.940;2022-09-24T04:25:00;3.10;;;2.05;;
65753;SDS011;52488;47.502;18.940;2022-09-24T04:26:04;2.28;;;1.70;;
65753;SDS011;52488;47.502;18.940;2022-09-24T04:27:07;3.17;;;1.92;;
65753;SDS011;52488;47.502;18.940;2022-09-24T04:28:10;3.55;;;1.73;;
65753;SDS011;52488;47.502;18.940;2022-09-24T04:29:13;2.37;;;1.75;;
65753;SDS011;52488;47.502;18.940;2022-09-24T04:30:19;3.50;;;1.90;;
65753;SDS011;52488;47.502;18.940;2022-09-24T04:31:22;5.82;;;1.73;;
65753;SDS011;52488;47.502;18.940;2022-09-24T04:32:26;2.12;;;1.70;;
65753;SDS011;52488;47.502;18.940;2022-09-24T04:33:29;2.62;;;1.75;;
65753;SDS011;52488;47.502;18.940;2022-09-24T04:34:31;2.95;;;1.73;;
65753;SDS011;52488;47.502;18.940;2022-09-24T04:35:35;2.42;;;1.90;;
65753;SDS011;52488;47.502;18.940;2022-09-24T04:36:38;1.67;;;1.50;;
65753;SDS011;52488;47.502;18.940;2022-09-24T04:37:41;2.30;;;1.67;;
65753;SDS011;52488;47.502;18.940;2022-09-24T04:38:44;2.53;;;1.73;;
65753;SDS011;52488;47.502;18.940;2022-09-24T04:39:50;2.90;;;2.12;;
65753;SDS011;52488;47.502;18.940;2022-09-24T04:40:53;3.03;;;1.87;;
65753;SDS011;52488;47.502;18.940;2022-09-24T04:41:56;3.53;;;2.00;;
65753;SDS011;52488;47.502;18.940;2022-09-24T04:42:59;3.90;;;2.08;;
65753;SDS011;52488;47.502;18.940;2022-09-24T04:44:03;2.78;;;2.00;;
65753;SDS011;52488;47.502;18.940;2022-09-24T04:45:06;3.30;;;2.03;;
65753;SDS011;52488;47.502;18.940;2022-09-24T04:46:11;3.03;;;1.95;;
65753;SDS011;52488;47.502;18.940;2022-09-24T04:47:15;4.35;;;2.40;;
65753;SDS011;52488;47.502;18.940;2022-09-24T04:48:19;2.67;;;1.77;;
65753;SDS011;52488;47.502;18.940;2022-09-24T04:49:22;5.03;;;2.20;;
65753;SDS011;52488;47.502;18.940;2022-09-24T04:50:26;2.00;;;1.67;;
65753;SDS011;52488;47.502;18.940;2022-09-24T04:51:31;4.75;;;1.90;;
65753;SDS011;52488;47.502;18.940;2022-09-24T04:52:35;2.97;;;1.92;;
65753;SDS011;52488;47.502;18.940;2022-09-24T04:53:39;3.55;;;1.85;;
65753;SDS011;52488;47.502;18.940;2022-09-24T04:54:42;4.95;;;2.12;;
65753;SDS011;52488;47.502;18.940;2022-09-24T04:55:46;2.70;;;1.90;;
65753;SDS011;52488;47.502;18.940;2022-09-24T04:56:49;2.72;;;2.15;;
65753;SDS011;52488;47.502;18.940;2022-09-24T04:57:55;3.58;;;2.00;;
65753;SDS011;52488;47.502;18.940;2022-09-24T04:58:59;5.15;;;2.15;;
65753;SDS011;52488;47.502;18.940;2022-09-24T05:00:05;2.97;;;1.92;;
65753;SDS011;52488;47.502;18.940;2022-09-24T05:01:10;3.28;;;2.67;;
65753;SDS011;52488;47.502;18.940;2022-09-24T05:02:14;5.37;;;2.30;;
65753;SDS011;52488;47.502;18.940;2022-09-24T05:03:18;2.80;;;2.00;;
65753;SDS011;52488;47.502;18.940;2022-09-24T05:04:22;2.30;;;1.98;;
65753;SDS011;52488;47.502;18.940;2022-09-24T05:05:26;4.05;;;2.08;;
65753;SDS011;52488;47.502;18.940;2022-09-24T05:06:29;2.60;;;2.00;;
65753;SDS011;52488;47.502;18.940;2022-09-24T05:07:32;4.82;;;2.33;;
65753;SDS011;52488;47.502;18.940;2022-09-24T05:08:35;4.12;;;2.28;;
65753;SDS011;52488;47.502;18.940;2022-09-24T05:09:38;3.30;;;2.17;;
65753;SDS011;52488;47.502;18.940;2022-09-24T05:10:40;5.28;;;2.20;;
65753;SDS011;52488;47.502;18.940;2022-09-24T05:11:44;3.30;;;2.33;;
65753;SDS011;52488;47.502;18.940;2022-09-24T05:12:47;3.72;;;2.00;;
65753;SDS011;52488;47.502;18.940;2022-09-24T05:13:50;4.40;;;2.30;;
65753;SDS011;52488;47.502;18.940;2022-09-24T05:14:53;2.50;;;2.08;;
65753;SDS011;52488;47.502;18.940;2022-09-24T05:15:56;5.15;;;2.42;;
65753;SDS011;52488;47.502;18.940;2022-09-24T05:17:02;6.37;;;2.33;;
65753;SDS011;52488;47.502;18.940;2022-09-24T05:18:05;2.35;;;1.80;;
65753;SDS011;52488;47.502;18.940;2022-09-24T05:19:11;3.97;;;1.65;;
65753;SDS011;52488;47.502;18.940;2022-09-24T05:20:14;4.78;;;2.05;;
65753;SDS011;52488;47.502;18.940;2022-09-24T05:21:18;2.12;;;1.77;;
65753;SDS011;52488;47.502;18.940;2022-09-24T05:22:20;3.37;;;1.80;;
65753;SDS011;52488;47.502;18.940;2022-09-24T05:23:23;3.87;;;1.85;;
65753;SDS011;52488;47.502;18.940;2022-09-24T05:24:26;2.40;;;1.90;;
65753;SDS011;52488;47.502;18.940;2022-09-24T05:25:29;4.47;;;2.25;;
65753;SDS011;52488;47.502;18.940;2022-09-24T05:26:32;3.30;;;2.00;;
65753;SDS011;52488;47.502;18.940;2022-09-24T05:27:54;2.50;;;1.85;;
65753;SDS011;52488;47.502;18.940;2022-09-24T05:28:57;2.92;;;1.75;;
65753;SDS011;52488;47.502;18.940;2022-09-24T05:30:00;5.18;;;2.00;;
65753;SDS011;52488;47.502;18.940;2022-09-24T05:31:03;5.25;;;2.12;;
65753;SDS011;52488;47.502;18.940;2022-09-24T05:32:07;2.90;;;1.83;;
65753;SDS011;52488;47.502;18.940;2022-09-24T05:33:12;3.45;;;1.92;;
65753;SDS011;52488;47.502;18.940;2022-09-24T05:34:15;4.30;;;2.35;;
65753;SDS011;52488;47.502;18.940;2022-09-24T05:35:18;2.47;;;2.10;;
65753;SDS011;52488;47.502;18.940;2022-09-24T05:36:22;2.95;;;1.77;;
65753;SDS011;52488;47.502;18.940;2022-09-24T05:37:28;3.45;;;2.45;;
65753;SDS011;52488;47.502;18.940;2022-09-24T05:38:31;4.43;;;2.25;;
65753;SDS011;52488;47.502;18.940;2022-09-24T05:39:34;2.80;;;2.10;;
65753;SDS011;52488;47.502;18.940;2022-09-24T05:40:37;5.78;;;2.30;;
65753;SDS011;52488;47.502;18.940;2022-09-24T05:41:49;2.60;;;2.22;;
65753;SDS011;52488;47.502;18.940;2022-09-24T05:42:57;4.90;;;2.40;;
65753;SDS011;52488;47.502;18.940;2022-09-24T05:44:01;3.95;;;1.95;;
65753;SDS011;52488;47.502;18.940;2022-09-24T05:45:05;3.37;;;1.92;;
65753;SDS011;52488;47.502;18.940;2022-09-24T05:46:08;2.58;;;1.77;;
65753;SDS011;52488;47.502;18.940;2022-09-24T05:47:11;2.25;;;1.80;;
65753;SDS011;52488;47.502;18.940;2022-09-24T05:48:15;2.67;;;2.08;;
65753;SDS011;52488;47.502;18.940;2022-09-24T05:49:18;2.47;;;1.80;;
65753;SDS011;52488;47.502;18.940;2022-09-24T05:50:21;4.93;;;1.77;;
65753;SDS011;52488;47.502;18.940;2022-09-24T05:51:24;3.78;;;1.70;;
65753;SDS011;52488;47.502;18.940;2022-09-24T05:52:27;3.37;;;2.00;;
65753;SDS011;52488;47.502;18.940;2022-09-24T05:53:30;3.37;;;2.00;;
65753;SDS011;52488;47.502;18.940;2022-09-24T05:54:33;2.80;;;1.90;;
65753;SDS011;52488;47.502;18.940;2022-09-24T05:55:36;2.05;;;1.70;;
65753;SDS011;52488;47.502;18.940;2022-09-24T05:56:38;2.20;;;1.83;;
65753;SDS011;52488;47.502;18.940;2022-09-24T05:57:41;4.00;;;1.65;;
65753;SDS011;52488;47.502;18.940;2022-09-24T05:58:47;2.78;;;1.90;;
65753;SDS011;52488;47.502;18.940;2022-09-24T05:59:51;3.08;;;1.62;;
65753;SDS011;52488;47.502;18.940;2022-09-24T06:00:57;2.50;;;1.40;;
65753;SDS011;52488;47.502;18.940;2022-09-24T06:02:01;3.05;;;1.62;;
65753;SDS011;52488;47.502;18.940;2022-09-24T06:03:05;2.10;;;1.83;;
65753;SDS011;52488;47.502;18.940;2022-09-24T06:04:12;1.87;;;1.77;;
65753;SDS011;52488;47.502;18.940;2022-09-24T06:05:15;2.70;;;1.50;;
65753;SDS011;52488;47.502;18.940;2022-09-24T06:06:18;1.75;;;1.65;;
65753;SDS011;52488;47.502;18.940;2022-09-24T06:07:21;2.30;;;1.85;;
65753;SDS011;52488;47.502;18.940;2022-09-24T06:08:24;4.03;;;1.98;;
65753;SDS011;52488;47.502;18.940;2022-09-24T06:09:27;5.15;;;1.95;;
65753;SDS011;52488;47.502;18.940;2022-09-24T06:10:30;2.47;;;1.80;;
65753;SDS011;52488;47.502;18.940;2022-09-24T06:11:37;2.50;;;1.40;;
65753;SDS011;52488;47.502;18.940;2022-09-24T06:12:42;4.47;;;1.87;;
65753;SDS011;52488;47.502;18.940;2022-09-24T06:13:45;4.07;;;2.28;;
65753;SDS011;52488;47.502;18.940;2022-09-24T06:14:48;3.65;;;1.90;;
65753;SDS011;52488;47.502;18.940;2022-09-24T06:15:51;3.47;;;2.00;;
65753;SDS011;52488;47.502;18.940;2022-09-24T06:16:55;2.83;;;1.83;;
65753;SDS011;52488;47.502;18.940;2022-09-24T06:17:58;2.17;;;1.67;;
65753;SDS011;52488;47.502;18.940;2022-09-24T06:19:01;6.62;;;1.90;;
65753;SDS011;52488;47.502;18.940;2022-09-24T06:20:04;2.22;;;1.80;;
65753;SDS011;52488;47.502;18.940;2022-09-24T06:21:09;3.15;;;1.73;;
65753;SDS011;52488;47.502;18.940;2022-09-24T06:22:14;4.25;;;1.83;;
65753;SDS011;52488;47.502;18.940;2022-09-24T06:23:16;5.70;;;2.33;;
65753;SDS011;52488;47.502;18.940;2022-09-24T06:24:19;2.70;;;1.98;;
65753;SDS011;52488;47.502;18.940;2022-09-24T06:25:23;6.60;;;2.17;;
65753;SDS011;52488;47.502;18.940;2022-09-24T06:26:27;5.05;;;2.12;;
65753;SDS011;52488;47.502;18.940;2022-09-24T06:27:30;2.15;;;1.77;;
65753;SDS011;52488;47.502;18.940;2022-09-24T06:28:33;7.85;;;2.10;;
65753;SDS011;52488;47.502;18.940;2022-09-24T06:29:36;2.40;;;2.15;;
65753;SDS011;52488;47.502;18.940;2022-09-24T06:30:39;3.58;;;2.22;;
65753;SDS011;52488;47.502;18.940;2022-09-24T06:31:42;6.22;;;2.40;;
65753;SDS011;52488;47.502;18.940;2022-09-24T06:32:47;3.62;;;2.47;;
65753;SDS011;52488;47.502;18.940;2022-09-24T06:33:49;2.62;;;2.08;;
65753;SDS011;52488;47.502;18.940;2022-09-24T06:34:52;2.67;;;1.67;;
65753;SDS011;52488;47.502;18.940;2022-09-24T06:36:01;3.15;;;1.90;;
65753;SDS011;52488;47.502;18.940;2022-09-24T06:37:06;4.37;;;2.28;;
65753;SDS011;52488;47.502;18.940;2022-09-24T06:38:12;3.42;;;2.25;;
65753;SDS011;52488;47.502;18.940;2022-09-24T06:39:17;3.65;;;2.17;;
65753;SDS011;52488;47.502;18.940;2022-09-24T06:40:20;5.57;;;1.80;;
65753;SDS011;52488;47.502;18.940;2022-09-24T06:41:23;4.28;;;1.77;;
65753;SDS011;52488;47.502;18.940;2022-09-24T06:42:26;1.85;;;1.60;;
65753;SDS011;52488;47.502;18.940;2022-09-24T06:43:29;2.78;;;2.17;;
65753;SDS011;52488;47.502;18.940;2022-09-24T06:44:33;4.00;;;2.03;;
65753;SDS011;52488;47.502;18.940;2022-09-24T06:45:36;3.55;;;2.22;;
65753;SDS011;52488;47.502;18.940;2022-09-24T06:46:39;2.70;;;2.00;;
65753;SDS011;52488;47.502;18.940;2022-09-24T06:47:42;2.12;;;1.87;;
65753;SDS011;52488;47.502;18.940;2022-09-24T06:48:47;2.67;;;1.80;;